Somerset, CA (95684)

6:48 PM PDT on July 06, 2015 (GMT -0700)
Sky Park and Overland | | Change Station
CLOSE
Current Station
Personal Weather Station
Location: Placerville, CA
Elevation: 3406 ft
Nearby Weather Stations
Active Advisory: Flash Flood Warning

Elev 3406 ft 38.69 °N, 120.60 °W | Updated 14 minutes ago

Clear
Clear
80.1 °F
Feels Like 80 °F
N
0.0
Wind Variable Wind from SSW

Today
High -- | Low -- °F
--% Chance of Precip.
Yesterday
High -- | Low -- °F
Precip. -- in
5:44 AM 8:29 PM
Waning Gibbous, 70% visible
Pressure 30.05 in
Visibility 10.0 miles
Clouds Clear
Heat Index 80 °F
Dew Point 53 °F
Humidity 39%
Rainfall 0.00 in
Snow Depth Not available.
UV 2 out of 12
Pollen 5.30 out of 12
Air Quality Not available.
Flu Activity Not available.
METAR KPVF 070135Z AUTO 24004KT 10SM CLR 28/10 A3005 RMK AO1

More Conditions Fewer Conditions

Pressure 30.05 in
Visibility 10.0 miles
Clouds Clear
Heat Index 80 °F
Dew Point 53 °F
Humidity 39%
Rainfall 0.00 in
Snow Depth Not available.
UV 2 out of 12
Pollen 5.30 out of 12
Air Quality Not available.
Flu Activity Not available.
METAR KPVF 070135Z AUTO 24004KT 10SM CLR 28/10 A3005 RMK AO1

More Conditions Fewer Conditions

10-Day Weather Forecast

×

Almanac

Astronomy

Jul. 06, 2015 Rise Set
Actual Time
Civil Twilight
Nautical Twilight
Astronomical Twilight
Moon
Length of Visible Light
Length of Day
Tomorrow will be .
, % of the Moon is Illuminated

Today's Extremes

State Highs State Lows

Community

WunderPhotos

Upload Photos

1,835,692 photos uploaded!

WunderBlogs® & News

Nearby

Air Quality

  Air Quality AQ Index Pollutant
Not available.

Snow Depth

Station Depth Elevation

Earthquake Activity

City Distance Mag. Time & Date
Minimum magnitude displayed is 2.5.

Coastal Water Temperatures

Place Temperature

Stations

Nearby Weather Stations

Station Location Temp. Windchill Dew Point Humidity Wind Precip. Elev Updated Type
                   
Flash Flood Warning
Statement as of 6:08 PM PDT on July 06, 2015

... The Flash Flood Warning remains in effect until 800 PM PDT for
alpine... El Dorado and northwestern Douglas counties and Carson
City...

At 604 PM PDT... heavy rain is decreasing in the area... however flash
flooding will continue along foothill Road south of Genoa and west
of Gardnerville. Rocks and debris may also be covering portions of
Kingsbury grade.

Some locations that will experience flooding include...
foothill Road south of Genoa and west of Gardnerville.

Precautionary/preparedness actions...

Never drive your vehicle into areas where the water covers the
roadway. Flood waters are usually deeper than they appear. A few
inches of fast flowing water is powerful enough to sweep vehicles
off the Road.


Lat... Lon 3910 11976 3889 11977 3891 11998 3910 11995


Brong